CW4352 Weather Reports


Display with metric or nautical units.
time (UTC)temp
F
wind
direction
speed
MPH
gust
MPH
rain 1hr
in
rain 24hr
in
rain mn
in
humidity
%
barometer
mb
20190218041702 46 281 4.0 5.0 0.00 0.00 0.00 48 1020.8
20190218041202 46 273 3.0 5.0 0.00 0.00 0.00 48 1020.7
20190218040702 46 261 3.0 5.0 0.00 0.00 0.00 48 1020.7
20190218040202 46 257 3.0 6.0 0.00 0.00 0.00 48 1020.7
20190218034201 46 275 2.0 3.0 0.00 0.00 0.00 48 1020.7
20190218033702 46 275 3.0 5.0 0.00 0.00 0.00 48 1020.7
20190218033202 46 275 2.0 7.0 0.00 0.00 0.00 48 1020.7
20190218031202 46 270 4.0 6.0 0.00 0.00 0.00 48 1020.7
20190218030702 46 267 5.0 8.0 0.00 0.00 0.00 48 1020.7
20190218030202 46 261 6.0 8.0 0.00 0.00 0.00 48 1020.7
20190218024202 46 268 4.0 5.0 0.00 0.00 0.00 49 1021.1
20190218023202 46 268 5.0 5.0 0.00 0.00 0.00 49 1021.1
20190218021202 46 275 5.0 7.0 0.00 0.00 0.00 50 1021.1
20190218020702 46 274 6.0 7.0 0.00 0.00 0.00 50 1021.1
20190218020202 46 272 5.0 7.0 0.00 0.00 0.00 50 1021.1
20190218014702 47 278 5.0 7.0 0.00 0.00 0.00 49 1021.2
20190218013702 47 277 5.0 7.0 0.00 0.00 0.00 49 1021.3
20190218013202 47 273 5.0 7.0 0.00 0.00 0.00 48 1021.3
20190218011702 47 274 3.0 5.0 0.00 0.00 0.00 49 1021.3
20190218011202 47 273 3.0 5.0 0.00 0.00 0.00 49 1021.3
20190218010202 47 275 4.0 7.0 0.00 0.00 0.00 49 1021.3
20190218004702 47 271 4.0 6.0 0.00 0.00 0.00 49 1021.3
20190218003702 47 271 5.0 6.0 0.00 0.00 0.00 49 1021.3
20190218003202 47 276 4.0 7.0 0.00 0.00 0.00 49 1021.7
20190218001202 48 275 5.0 6.0 0.00 0.00 0.00 48 1021.7
20190218000704 48 275 5.0 7.0 0.00 0.00 0.00 49 1021.7
20190218000202 48 275 4.0 5.0 0.00 0.00 0.00 49 1021.7
20190217234702 47 274 3.0 5.0 0.00 0.00 0.00 50 1021.7
20190217234202 48 275 3.0 5.0 0.00 0.00 0.00 50 1021.7
20190217233702 48 276 3.0 5.0 0.00 0.00 0.00 50 1021.7
20190217231202 48 274 3.0 5.0 0.00 0.00 0.00 50 1021.7
20190217230705 48 274 3.0 3.0 0.00 0.00 0.00 50 1021.7
20190217230202 48 277 3.0 5.0 0.00 0.00 0.00 50 1021.8
20190217224202 48 278 3.0 5.0 0.00 0.00 0.00 50 1021.8
20190217221202 49 271 6.0 7.0 0.00 0.00 0.00 49 1021.8
20190217220702 49 276 5.0 8.0 0.00 0.00 0.00 49 1021.8
20190217220202 49 271 6.0 8.0 0.00 0.00 0.00 49 1021.8
20190217214702 50 275 5.0 6.0 0.00 0.00 0.00 48 1021.9
20190217214202 50 276 5.0 7.0 0.00 0.00 0.00 48 1021.9
20190217213702 50 273 5.0 7.0 0.00 0.00 0.00 48 1021.9
20190217213202 50 275 5.0 5.0 0.00 0.00 0.00 49 1021.9
20190217211202 50 275 3.0 5.0 0.00 0.00 0.00 49 1021.9
20190217210702 50 277 3.0 6.0 0.00 0.00 0.00 48 1021.9
20190217210202 50 274 4.0 6.0 0.00 0.00 0.00 48 1021.9
20190217203702 50 269 3.0 3.0 0.00 0.00 0.00 48 1021.8
20190217203202 51 266 3.0 5.0 0.00 0.00 0.00 48 1021.8
20190217201702 51 260 3.0 3.0 0.00 0.00 0.00 47 1021.8
20190217201205 51 254 3.0 3.0 0.00 0.00 0.00 47 1021.8
20190217200203 51 255 2.0 3.0 0.00 0.00 0.00 46 1021.7
20190217194702 52 257 1.0 2.0 0.00 0.00 0.00 45 1021.7
20190217194202 52 257 2.0 3.0 0.00 0.00 0.00 45 1021.6
20190217193202 51 257 3.0 3.0 0.00 0.00 0.00 45 1021.6
20190217191703 51 243 2.0 3.0 0.00 0.00 0.00 45 1021.6
20190217191202 52 271 1.0 3.0 0.00 0.00 0.00 44 1021.6
20190217190202 52 269 1.0 3.0 0.00 0.00 0.00 43 1021.3
20190217184702 52 275 2.0 3.0 0.00 0.00 0.00 43 1021.3
20190217184202 52 282 1.0 2.0 0.00 0.00 0.00 43 1021.3
20190217183702 53 284 0.0 1.0 0.00 0.00 0.00 43 1021.3
20190217183202 53 284 1.0 2.0 0.00 0.00 0.00 42 1021.3
20190217181703 53 294 0.0 1.0 0.00 0.00 0.00 43 1021.3
20190217181202 53 294 0.0 1.0 0.00 0.00 0.00 42 1021.3
20190217180702 53 294 1.0 2.0 0.00 0.00 0.00 42 1021.3
20190217174702 54 321 0.0 0.0 0.00 0.00 0.00 41 1021.3
20190217173702 54 321 1.0 2.0 0.00 0.00 0.00 40 1021.3
20190217171202 56 323 0.0 0.0 0.00 0.00 0.00 38 1021.2
20190217170702 56 323 0.0 0.0 0.00 0.00 0.00 38 1021.2
20190217164202 58 323 0.0 0.0 0.00 0.00 0.00 35 1021.2
20190217163702 58 323 0.0 0.0 0.00 0.00 0.00 34 1021.2
20190217163202 58 323 0.0 1.0 0.00 0.00 0.00 34 1021.3
20190217161702 59 28 0.0 0.0 0.00 0.00 0.00 33 1021.3
20190217161202 59 28 0.0 0.0 0.00 0.00 0.00 33 1021.3
20190217160702 59 28 0.0 0.0 0.00 0.00 0.00 33 1021.3
20190217160203 59 28 0.0 1.0 0.00 0.00 0.00 32 1021.5
20190217154202 60 55 1.0 2.0 0.00 0.00 0.00 32 1021.5
20190217153202 60 55 0.0 3.0 0.00 0.00 0.00 33 1022.0
20190217151702 60 55 1.0 3.0 0.00 0.00 0.00 33 1022.0
20190217151202 60 55 1.0 3.0 0.00 0.00 0.00 33 1022.0
20190217150702 60 55 0.0 3.0 0.00 0.00 0.00 35 1022.0
20190217144202 60 42 3.0 6.0 0.00 0.00 0.00 35 1022.0
20190217141202 60 30 5.0 8.0 0.00 0.00 0.00 37 1022.0
20190217140702 60 27 5.0 8.0 0.00 0.00 0.00 37 1022.3
20190217140202 60 30 6.0 8.0 0.00 0.00 0.00 37 1022.3
20190217134202 60 27 5.0 7.0 0.00 0.00 0.00 37 1022.3
20190217133203 59 36 5.0 9.0 0.00 0.00 0.00 39 1022.8
20190217131703 59 51 6.0 8.0 0.00 0.00 0.00 40 1022.8
20190217131202 59 37 5.0 9.0 0.00 0.00 0.00 40 1022.8
20190217130203 59 29 8.0 10.0 0.00 0.00 0.00 42 1022.9
20190217124702 58 344 5.0 9.0 0.00 0.00 0.00 42 1022.9
20190217124202 58 344 6.0 8.0 0.00 0.00 0.00 42 1023.0
20190217123702 58 24 6.0 8.0 0.00 0.00 0.00 43 1023.3
20190217123202 58 23 5.0 10.0 0.00 0.00 0.00 43 1023.3
20190217121202 57 30 9.0 12.0 0.00 0.00 0.00 43 1023.7
20190217120702 57 32 7.0 10.0 0.00 0.00 0.00 43 1023.7
20190217120202 57 33 7.0 12.0 0.00 0.00 0.00 45 1023.7
20190217114702 57 24 8.0 10.0 0.00 0.00 0.00 44 1023.7
20190217114202 57 15 7.0 12.0 0.00 0.00 0.00 44 1023.9
20190217113702 57 13 6.0 9.0 0.00 0.00 0.00 44 1023.9
20190217113203 57 43 5.0 9.0 0.00 0.00 0.00 44 1023.9
20190217111703 57 61 3.0 8.0 0.00 0.00 0.00 43 1024.3
20190217111202 57 66 1.0 5.0 0.00 0.00 0.00 44 1024.3
20190217110702 56 67 2.0 5.0 0.00 0.00 0.00 44 1024.3
20190217110203 56 66 1.0 3.0 0.00 0.00 0.00 46 1024.3
20190217103702 55 67 0.0 1.0 0.00 0.00 0.00 44 1024.5
20190217101702 55 65 0.0 0.0 0.00 0.00 0.00 45 1024.9
20190217101202 54 65 0.0 0.0 0.00 0.00 0.00 45 1024.9
20190217100202 53 65 1.0 3.0 0.00 0.00 0.00 46 1024.9
20190217094703 52 29 1.0 3.0 0.00 0.00 0.00 45 1024.7
20190217094202 52 326 0.0 3.0 0.00 0.00 0.00 43 1024.7
20190217093202 52 279 0.0 0.0 0.00 0.00 0.00 40 1024.8
20190217091202 51 278 0.0 0.0 0.00 0.00 0.00 38 1024.7
20190217090702 51 278 0.0 0.0 0.00 0.00 0.00 39 1024.7
20190217083703 48 278 0.0 0.0 0.00 0.00 0.00 44 1024.9
20190217083202 48 278 0.0 0.0 0.00 0.00 0.00 44 1024.9
20190217081702 46 278 0.0 0.0 0.00 0.00 0.00 50 1024.9
20190217080202 44 278 0.0 1.0 0.00 0.00 0.00 51 1024.9
20190217074703 42 280 0.0 0.0 0.00 0.00 0.00 50 1024.9
20190217073703 42 280 0.0 1.0 0.00 0.00 0.00 50 1024.9
20190217073203 42 280 0.0 3.0 0.00 0.00 0.00 48 1024.9
20190217071702 42 276 1.0 3.0 0.00 0.00 0.00 47 1024.9
20190217070203 41 253 3.0 5.0 0.00 0.00 0.00 49 1024.9
20190217064702 41 277 2.0 3.0 0.00 0.00 0.00 47 1024.5
20190217064202 42 277 1.0 3.0 0.00 0.00 0.00 47 1024.5
20190217063203 42 260 3.0 5.0 0.00 0.00 0.00 47 1024.5
20190217061703 43 284 4.0 7.0 0.00 0.00 0.00 45 1024.5
20190217060702 43 283 5.0 7.0 0.00 0.00 0.00 47 1024.5
20190217053702 42 259 5.0 6.0 0.00 0.00 0.00 50 1024.4
20190217053202 42 277 3.0 5.0 0.00 0.00 0.00 50 1024.4
20190217051703 41 269 3.0 5.0 0.00 0.00 0.00 50 1024.4
20190217051202 42 269 0.0 2.0 0.00 0.00 0.00 50 1024.4
20190217050203 42 278 3.0 6.0 0.00 0.00 0.00 51 1024.4
20190217044703 43 274 3.0 5.0 0.00 0.00 0.00 50 1024.4
20190217044202 43 277 4.0 7.0 0.00 0.00 0.00 51 1024.4
20190217043702 43 279 5.0 8.0 0.00 0.00 0.00 51 1024.4